Terminal Aerodrome Forecast
Issued by NWS Rapid City, SD

Home | Current Version | Previous Version | Graphics & Text | Print | Product List | Glossary On
Versions: 1 2 3 4 5 6 7 8 9 10 11 12 13 14 15 16 17 18 19 20
000
FTUS43 KUNR 241100
TAFRAP
TAF
KRAP 241120Z 2412/2512 32014KT P6SM SCT050 BKN250
     FM242200 20006KT P6SM OVC200
     FM250300 33014KT P6SM OVC070
     FM251100 34016KT 2SM -SN OVC020=

USA.gov is the U.S. government's official web portal to all federal, state and local government web resources and services.